createdAt,value
2022-11-05T00:00:36.359Z,41.40
2022-11-05T00:03:22.378Z,39.27
2022-11-05T00:06:11.594Z,37.88
2022-11-05T00:08:59.528Z,36.20
2022-11-05T00:11:46.708Z,38.95
2022-11-05T00:14:33.012Z,34.58
2022-11-05T00:17:00.283Z,37.88
2022-11-05T00:19:27.104Z,34.28
2022-11-05T00:22:12.857Z,46.20
2022-11-05T00:24:58.428Z,36.08
2022-11-05T00:27:25.478Z,36.17
2022-11-05T00:29:52.321Z,36.13
2022-11-05T00:32:19.381Z,34.47
2022-11-05T00:34:46.170Z,39.83
2022-11-05T00:37:13.042Z,38.53
2022-11-05T00:39:41.164Z,36.67
2022-11-05T00:42:26.666Z,34.83
2022-11-05T00:45:02.504Z,33.00
2022-11-05T00:47:50.409Z,33.83
2022-11-05T00:50:22.586Z,34.72
2022-11-05T00:53:01.519Z,35.30
2022-11-05T00:55:38.168Z,36.42
2022-11-05T00:58:11.494Z,41.67
2022-11-05T01:00:41.722Z,36.60
2022-11-05T01:03:12.844Z,37.63
2022-11-05T01:05:45.956Z,37.15
2022-11-05T01:08:14.594Z,37.75
2022-11-05T01:10:43.692Z,32.23
2022-11-05T01:13:13.394Z,36.50
2022-11-05T01:15:41.179Z,39.08
2022-11-05T01:18:08.270Z,38.95
2022-11-05T01:20:35.378Z,40.25
2022-11-05T01:23:02.217Z,39.45
2022-11-05T01:25:29.208Z,37.75
2022-11-05T01:27:56.044Z,38.72
2022-11-05T01:30:23.530Z,40.30
2022-11-05T01:32:51.132Z,36.25
2022-11-05T01:35:19.353Z,39.40
2022-11-05T01:37:46.590Z,36.75
2022-11-05T01:40:21.229Z,34.00
2022-11-05T01:42:48.712Z,35.20
2022-11-05T01:45:22.923Z,38.95
2022-11-05T01:47:58.961Z,37.38
2022-11-05T01:50:39.404Z,37.97
2022-11-05T01:53:34.428Z,35.05
2022-11-05T01:56:09.617Z,34.30
2022-11-05T01:58:44.801Z,43.63
2022-11-05T02:01:12.652Z,34.10
2022-11-05T02:03:40.020Z,37.97
2022-11-05T02:06:09.434Z,32.85
2022-11-05T02:09:09.057Z,35.65
2022-11-05T02:11:36.128Z,35.28
2022-11-05T02:14:03.479Z,37.17
2022-11-05T02:16:48.605Z,32.72
2022-11-05T02:19:46.429Z,35.33
2022-11-05T02:22:25.459Z,36.70
2022-11-05T02:25:17.302Z,38.05
2022-11-05T02:27:47.074Z,37.28
2022-11-05T02:30:32.240Z,36.47
2022-11-05T02:33:16.210Z,44.20
2022-11-05T02:35:55.743Z,36.08
2022-11-05T02:39:03.721Z,37.33
2022-11-05T02:41:40.061Z,37.97
2022-11-05T02:44:28.758Z,32.83
2022-11-05T02:47:28.501Z,36.85
2022-11-05T02:50:17.004Z,36.53
2022-11-05T02:52:56.731Z,36.45
2022-11-05T02:55:45.169Z,35.80
2022-11-05T02:58:13.054Z,33.67
2022-11-05T03:00:50.730Z,40.00
2022-11-05T03:03:43.206Z,36.15
2022-11-05T03:06:25.453Z,38.53
2022-11-05T03:09:26.909Z,39.97
2022-11-05T03:12:03.117Z,39.20
2022-11-05T03:14:40.583Z,34.28
2022-11-05T03:17:26.822Z,42.65
2022-11-05T03:20:36.458Z,37.80
2022-11-05T03:23:25.452Z,35.38
2022-11-05T03:26:24.645Z,33.55
2022-11-05T03:28:56.425Z,34.72
2022-11-05T03:31:25.839Z,35.67
2022-11-05T03:33:55.070Z,38.85
2022-11-05T03:36:37.840Z,37.33
2022-11-05T03:39:08.790Z,37.58
2022-11-05T03:41:38.695Z,39.45
2022-11-05T03:44:11.273Z,37.25
2022-11-05T03:46:45.207Z,37.10
2022-11-05T03:49:19.265Z,38.67
2022-11-05T03:51:53.485Z,41.67
2022-11-05T03:54:21.402Z,38.35
2022-11-05T03:57:00.317Z,38.60
2022-11-05T03:59:30.020Z,36.58
2022-11-05T04:04:25.130Z,40.38
2022-11-05T04:07:10.616Z,33.65
2022-11-05T04:09:55.991Z,37.03
2022-11-05T04:12:41.543Z,38.42
2022-11-05T04:15:08.792Z,39.78
2022-11-05T04:17:35.737Z,36.47
2022-11-05T04:20:21.192Z,40.22
2022-11-05T04:23:06.702Z,42.58
2022-11-05T04:25:33.904Z,41.67
2022-11-05T04:28:00.729Z,39.38
2022-11-05T04:30:27.840Z,36.72
2022-11-05T04:33:21.349Z,37.78
2022-11-05T04:35:49.397Z,37.67
2022-11-05T04:38:18.972Z,37.40
2022-11-05T04:40:46.942Z,40.13
2022-11-05T04:43:16.829Z,40.30
2022-11-05T04:45:44.370Z,40.50
2022-11-05T04:48:12.514Z,34.83
2022-11-05T04:50:39.485Z,35.05
2022-11-05T04:53:06.491Z,42.35
2022-11-05T04:55:33.719Z,36.53
2022-11-05T04:58:00.573Z,36.28
2022-11-05T05:00:27.734Z,39.38
2022-11-05T05:02:54.715Z,35.92
2022-11-05T05:05:22.838Z,36.63
2022-11-05T05:07:50.103Z,35.03
2022-11-05T05:10:17.533Z,40.22
2022-11-05T05:12:44.342Z,40.15
2022-11-05T05:15:11.573Z,40.92
2022-11-05T05:17:38.373Z,34.80
2022-11-05T05:20:25.974Z,39.83
2022-11-05T05:22:56.100Z,36.10
2022-11-05T05:25:23.166Z,36.30
2022-11-05T05:27:50.080Z,40.90
2022-11-05T05:30:16.944Z,39.90
2022-11-05T05:32:44.074Z,43.35
2022-11-05T05:35:11.214Z,47.17
2022-11-05T05:37:38.856Z,36.95
2022-11-05T05:40:06.147Z,42.33
2022-11-05T05:42:34.544Z,41.97
2022-11-05T05:45:03.594Z,41.20
2022-11-05T05:47:30.425Z,44.47
2022-11-05T05:49:57.611Z,40.70
2022-11-05T05:52:24.401Z,39.58
2022-11-05T05:54:51.302Z,39.28
2022-11-05T05:57:18.165Z,40.33
2022-11-05T05:59:44.998Z,45.42
2022-11-05T06:02:12.802Z,43.05
2022-11-05T06:04:39.971Z,42.13
2022-11-05T06:07:07.686Z,44.70
2022-11-05T06:09:34.789Z,44.83
2022-11-05T06:12:01.582Z,42.28
2022-11-05T06:14:28.491Z,43.80
2022-11-05T06:16:55.400Z,42.33
2022-11-05T06:19:22.406Z,44.40
2022-11-05T06:21:49.357Z,39.92
2022-11-05T06:24:16.354Z,35.90
2022-11-05T06:26:45.358Z,39.25
2022-11-05T06:29:12.278Z,39.38
2022-11-05T06:31:39.857Z,43.10
2022-11-05T06:34:06.801Z,41.00
2022-11-05T06:36:34.257Z,39.88
2022-11-05T06:39:01.162Z,41.05
2022-11-05T06:41:28.298Z,41.17
2022-11-05T06:43:55.316Z,43.22
2022-11-05T06:46:22.315Z,38.42
2022-11-05T06:48:49.329Z,42.70
2022-11-05T06:51:16.415Z,35.88
2022-11-05T06:53:43.259Z,38.80
2022-11-05T06:56:10.449Z,46.47
2022-11-05T06:58:37.974Z,39.70
2022-11-05T07:01:08.673Z,36.00
2022-11-05T07:03:37.316Z,41.83
2022-11-05T07:06:05.341Z,37.60
2022-11-05T07:08:33.785Z,40.80
2022-11-05T07:11:01.051Z,37.97
2022-11-05T07:13:28.129Z,45.95
2022-11-05T07:15:55.086Z,43.40
2022-11-05T07:18:22.481Z,41.78
2022-11-05T07:20:49.557Z,38.55
2022-11-05T07:23:16.997Z,36.42
2022-11-05T07:25:43.919Z,37.80
2022-11-05T07:28:11.249Z,36.65
2022-11-05T07:30:38.130Z,36.55
2022-11-05T07:33:05.230Z,31.70
2022-11-05T07:35:32.148Z,33.58
2022-11-05T07:37:59.668Z,35.92
2022-11-05T07:40:28.674Z,33.72
2022-11-05T07:43:00.941Z,35.75
2022-11-05T07:45:30.015Z,37.15
2022-11-05T07:48:00.456Z,37.38
2022-11-05T07:50:33.714Z,34.63
2022-11-05T07:53:02.663Z,33.25
2022-11-05T07:55:30.334Z,35.40
2022-11-05T07:57:57.662Z,40.33
2022-11-05T08:00:26.275Z,34.75
2022-11-05T08:03:08.210Z,35.53
2022-11-05T08:05:38.229Z,35.13
2022-11-05T08:08:06.714Z,40.13
2022-11-05T08:10:34.276Z,38.27
2022-11-05T08:13:01.543Z,34.13
2022-11-05T08:15:28.776Z,33.45
2022-11-05T08:18:00.048Z,36.08
2022-11-05T08:20:27.810Z,38.58
2022-11-05T08:22:55.662Z,34.72
2022-11-05T08:25:23.197Z,36.67
2022-11-05T08:28:01.565Z,34.30
2022-11-05T08:30:29.266Z,31.20
2022-11-05T08:32:58.373Z,34.72
2022-11-05T08:35:26.430Z,35.47
2022-11-05T08:38:02.651Z,38.08
2022-11-05T08:40:31.655Z,28.67
2022-11-05T08:43:00.128Z,31.13
2022-11-05T08:45:27.761Z,34.30
2022-11-05T08:48:01.768Z,34.67
2022-11-05T08:50:29.096Z,32.17
2022-11-05T08:52:56.245Z,32.97
2022-11-05T08:55:23.634Z,30.30
2022-11-05T08:58:02.123Z,30.50
2022-11-05T09:00:31.598Z,37.92
2022-11-05T09:03:00.960Z,30.58
2022-11-05T09:08:00.814Z,30.70
2022-11-05T09:10:28.625Z,26.42
2022-11-05T09:12:55.655Z,25.88
2022-11-05T09:15:23.429Z,26.98
2022-11-05T09:17:51.201Z,25.23
2022-11-05T09:20:18.143Z,32.10
2022-11-05T09:22:46.285Z,28.27
2022-11-05T09:25:15.227Z,23.42
2022-11-05T09:27:42.982Z,31.70
2022-11-05T09:30:11.270Z,28.52
2022-11-05T09:32:38.902Z,27.10
2022-11-05T09:35:07.101Z,27.98
2022-11-05T09:37:34.278Z,25.92
2022-11-05T09:40:01.379Z,32.95
2022-11-05T09:42:35.678Z,32.90
2022-11-05T09:45:08.679Z,31.42
2022-11-05T09:47:44.434Z,31.30
2022-11-05T09:50:19.270Z,27.38
2022-11-05T09:52:46.219Z,28.08
2022-11-05T09:55:41.530Z,23.00
2022-11-05T09:58:21.250Z,23.15
2022-11-05T10:00:52.475Z,23.92
2022-11-05T10:03:23.678Z,22.33
2022-11-05T10:05:52.610Z,29.45
2022-11-05T10:08:31.785Z,22.13
2022-11-05T10:11:10.855Z,31.00
2022-11-05T10:13:56.958Z,25.80
2022-11-05T10:16:35.412Z,24.15
2022-11-05T10:19:24.681Z,22.50
2022-11-05T10:22:17.110Z,25.27
2022-11-05T10:24:47.167Z,22.55
2022-11-05T10:27:23.289Z,29.35
2022-11-05T10:29:50.523Z,23.98
2022-11-05T10:32:34.618Z,24.20
2022-11-05T10:35:06.664Z,22.75
2022-11-05T10:37:39.550Z,22.33
2022-11-05T10:40:39.826Z,23.02
2022-11-05T10:45:52.608Z,21.48
2022-11-05T10:48:22.112Z,22.92
2022-11-05T10:50:49.234Z,24.23
2022-11-05T10:53:35.774Z,26.08
2022-11-05T10:56:03.390Z,25.13
2022-11-05T10:58:32.573Z,20.50
2022-11-05T11:00:59.424Z,21.35
2022-11-05T11:03:46.277Z,21.92
2022-11-05T11:06:32.646Z,23.05
2022-11-05T11:09:03.529Z,20.20
2022-11-05T11:11:32.793Z,20.23
2022-11-05T11:14:01.560Z,19.38
2022-11-05T11:16:45.214Z,28.33
2022-11-05T11:19:21.830Z,21.65
2022-11-05T11:22:10.876Z,21.48
2022-11-05T11:24:40.278Z,19.50
2022-11-05T11:29:45.150Z,22.42
2022-11-05T11:32:17.189Z,24.77
2022-11-05T11:34:45.725Z,22.92
2022-11-05T11:37:29.211Z,25.45
2022-11-05T11:40:13.180Z,23.52
2022-11-05T11:42:44.253Z,24.38
2022-11-05T11:45:33.090Z,20.23
2022-11-05T11:48:05.619Z,25.15
2022-11-05T11:50:44.282Z,21.58
2022-11-05T11:53:20.221Z,22.15
2022-11-05T11:56:12.807Z,23.92
2022-11-05T11:58:41.840Z,22.98
2022-11-05T12:01:18.191Z,24.95
2022-11-05T12:03:53.117Z,21.83
2022-11-05T12:07:04.700Z,20.90
2022-11-05T12:10:13.664Z,21.33
2022-11-05T12:12:55.717Z,21.55
2022-11-05T12:15:25.773Z,23.95
2022-11-05T12:18:01.833Z,19.35
2022-11-05T12:20:55.365Z,20.90
2022-11-05T12:23:59.637Z,23.92
2022-11-05T12:26:41.101Z,25.45
2022-11-05T12:29:40.507Z,24.88
2022-11-05T12:32:29.442Z,25.33
2022-11-05T12:35:15.331Z,21.13
2022-11-05T12:38:13.137Z,20.60
2022-11-05T12:40:50.962Z,24.50
2022-11-05T12:43:26.943Z,21.75
2022-11-05T12:46:10.485Z,21.20
2022-11-05T12:48:37.533Z,22.42
2022-11-05T12:51:14.383Z,20.63
2022-11-05T12:54:13.745Z,21.23
2022-11-05T12:59:17.025Z,24.05
2022-11-05T13:01:49.071Z,24.30
2022-11-05T13:05:01.879Z,20.60
2022-11-05T13:07:34.686Z,22.42
2022-11-05T13:10:14.394Z,19.83
2022-11-05T13:12:43.238Z,22.88
2022-11-05T13:15:29.308Z,19.52
2022-11-05T13:18:03.219Z,22.95
2022-11-05T13:20:36.309Z,25.23
2022-11-05T13:23:24.126Z,22.55
2022-11-05T13:25:57.887Z,25.40
2022-11-05T13:28:54.685Z,18.48
2022-11-05T13:31:49.290Z,27.17
2022-11-05T13:34:16.184Z,22.88
2022-11-05T13:37:06.749Z,23.10
2022-11-05T13:39:50.718Z,26.08
2022-11-05T13:42:32.685Z,28.88
2022-11-05T13:45:28.155Z,24.02
2022-11-05T13:48:11.638Z,44.30
2022-11-05T13:51:06.722Z,35.80
2022-11-05T13:53:46.025Z,28.90
2022-11-05T13:56:30.606Z,25.88
2022-11-05T13:59:12.573Z,21.05
2022-11-05T14:01:45.223Z,23.60
2022-11-05T14:04:27.204Z,25.02
2022-11-05T14:07:04.870Z,24.55
2022-11-05T14:09:35.641Z,24.55
2022-11-05T14:12:05.173Z,27.75
2022-11-05T14:14:43.625Z,30.20
2022-11-05T14:17:10.450Z,27.43
2022-11-05T14:20:06.354Z,20.08
2022-11-05T14:22:33.307Z,23.77
2022-11-05T14:25:01.682Z,24.50
2022-11-05T14:27:29.970Z,26.05
2022-11-05T14:29:57.282Z,29.27
2022-11-05T14:32:45.764Z,30.20
2022-11-05T14:35:15.664Z,24.77
2022-11-05T14:37:54.173Z,23.40
2022-11-05T14:40:27.312Z,27.50
2022-11-05T14:43:05.666Z,21.33
2022-11-05T14:45:39.291Z,24.63
2022-11-05T14:48:25.973Z,22.45
2022-11-05T14:50:53.061Z,28.27
2022-11-05T14:53:28.679Z,26.08
2022-11-05T14:56:06.341Z,25.63
2022-11-05T14:58:38.813Z,23.58
2022-11-05T15:01:09.464Z,23.88
2022-11-05T15:03:59.423Z,28.02
2022-11-05T15:06:35.188Z,32.53
2022-11-05T15:09:21.188Z,28.20
2022-11-05T15:11:56.958Z,33.53
2022-11-05T15:14:51.865Z,30.48
2022-11-05T15:17:32.329Z,31.70
2022-11-05T15:20:15.093Z,101.57
2022-11-05T15:22:44.934Z,47.35
2022-11-05T15:25:47.757Z,34.00
2022-11-05T15:28:17.089Z,33.28
2022-11-05T15:31:32.040Z,32.15
2022-11-05T15:34:17.149Z,34.38
2022-11-05T15:36:53.964Z,34.97
2022-11-05T15:39:47.569Z,27.98
2022-11-05T15:42:17.521Z,27.40
2022-11-05T15:44:56.279Z,32.60
2022-11-05T15:47:30.273Z,30.38
2022-11-05T15:50:01.309Z,29.60
2022-11-05T15:52:36.441Z,30.90
2022-11-05T15:55:29.809Z,31.08
2022-11-05T15:58:03.993Z,28.67
2022-11-05T16:00:33.906Z,27.73
2022-11-05T16:03:05.761Z,35.55
2022-11-05T16:05:36.067Z,29.95
2022-11-05T16:08:06.388Z,28.60
2022-11-05T16:10:37.193Z,27.88
2022-11-05T16:13:30.438Z,31.42
2022-11-05T16:15:59.639Z,25.02
2022-11-05T16:18:32.677Z,29.77
2022-11-05T16:21:08.463Z,33.40
2022-11-05T16:23:55.887Z,31.80
2022-11-05T16:29:35.071Z,27.27
2022-11-05T16:32:04.832Z,28.83
2022-11-05T16:34:45.766Z,29.13
2022-11-05T16:37:15.054Z,30.38
2022-11-05T16:39:41.891Z,28.65
2022-11-05T16:42:39.030Z,28.38
2022-11-05T16:45:07.949Z,32.08
2022-11-05T16:47:34.915Z,33.20
2022-11-05T16:50:02.240Z,30.48
2022-11-05T16:52:29.997Z,25.90
2022-11-05T16:54:56.985Z,31.05
2022-11-05T16:57:31.268Z,27.50
2022-11-05T17:00:00.201Z,31.88
2022-11-05T17:02:27.675Z,31.55
2022-11-05T17:04:54.749Z,25.48
2022-11-05T17:07:21.871Z,31.67
2022-11-05T17:09:48.864Z,27.20
2022-11-05T17:12:15.722Z,27.98
2022-11-05T17:14:42.660Z,26.60
2022-11-05T17:17:10.608Z,28.95
2022-11-05T17:19:42.326Z,31.92
2022-11-05T17:22:09.408Z,33.25
2022-11-05T17:24:36.305Z,27.95
2022-11-05T17:27:03.248Z,28.73
2022-11-05T17:29:30.171Z,26.40
2022-11-05T17:31:57.002Z,26.42
2022-11-05T17:34:24.170Z,26.67
2022-11-05T17:36:51.272Z,30.65
2022-11-05T17:39:18.306Z,28.35
2022-11-05T17:41:45.245Z,29.73
2022-11-05T17:44:12.544Z,27.00
2022-11-05T17:46:39.398Z,27.98
2022-11-05T17:49:06.385Z,26.75
2022-11-05T17:51:34.611Z,27.33
2022-11-05T17:54:01.689Z,25.90
2022-11-05T17:56:34.492Z,30.80
2022-11-05T17:59:03.714Z,26.92
2022-11-05T18:01:33.340Z,26.23
2022-11-05T18:04:07.235Z,24.63
2022-11-05T18:06:39.944Z,27.27
2022-11-05T18:09:08.867Z,32.78
2022-11-05T18:11:37.363Z,28.15
2022-11-05T18:14:05.066Z,28.02
2022-11-05T18:16:32.534Z,26.38
2022-11-05T18:18:59.637Z,28.50
2022-11-05T18:21:26.724Z,25.13
2022-11-05T18:23:53.630Z,27.83
2022-11-05T18:26:20.692Z,26.30
2022-11-05T18:28:47.641Z,30.40
2022-11-05T18:31:18.452Z,25.75
2022-11-05T18:33:46.035Z,29.02
2022-11-05T18:36:20.869Z,31.40
2022-11-05T18:38:48.248Z,31.70
2022-11-05T18:41:15.895Z,28.23
2022-11-05T18:43:43.280Z,30.30
2022-11-05T18:46:29.263Z,30.45
2022-11-05T18:48:59.995Z,27.83
2022-11-05T18:51:28.106Z,30.67
2022-11-05T18:53:55.234Z,29.52
2022-11-05T18:56:23.330Z,32.97
2022-11-05T18:58:50.626Z,31.48
2022-11-05T19:01:20.709Z,30.63
2022-11-05T19:03:49.646Z,32.13
2022-11-05T19:06:16.755Z,31.80
2022-11-05T19:08:44.210Z,32.22
2022-11-05T19:11:15.154Z,33.88
2022-11-05T19:13:42.865Z,37.97
2022-11-05T19:16:18.975Z,36.97
2022-11-05T19:18:46.356Z,40.50
2022-11-05T19:21:16.201Z,41.00
2022-11-05T19:23:43.344Z,36.92
2022-11-05T19:26:16.629Z,35.85
2022-11-05T19:28:44.224Z,35.15
2022-11-05T19:31:14.955Z,36.65
2022-11-05T19:33:43.290Z,37.10
2022-11-05T19:36:12.036Z,34.03
2022-11-05T19:38:40.035Z,37.58
2022-11-05T19:41:14.747Z,38.88
2022-11-05T19:43:42.320Z,38.08
2022-11-05T19:46:14.710Z,36.78
2022-11-05T19:48:43.474Z,38.40
2022-11-05T19:51:17.302Z,38.55
2022-11-05T19:53:44.790Z,33.83
2022-11-05T19:56:15.344Z,34.75
2022-11-05T19:58:43.559Z,39.88
2022-11-05T20:01:12.320Z,35.85
2022-11-05T20:03:40.414Z,34.22
2022-11-05T20:06:16.005Z,38.90
2022-11-05T20:09:07.104Z,37.65
2022-11-05T20:11:31.940Z,50.42
2022-11-05T20:13:58.813Z,39.95
2022-11-05T20:16:29.196Z,44.33
2022-11-05T20:18:57.751Z,42.33
2022-11-05T20:21:24.583Z,40.40
2022-11-05T20:23:51.500Z,42.67
2022-11-05T20:26:18.311Z,39.63
2022-11-05T20:28:45.644Z,37.25
2022-11-05T20:31:14.706Z,38.25
2022-11-05T20:33:43.168Z,45.15
2022-11-05T20:36:14.038Z,35.85
2022-11-05T20:38:41.164Z,40.78
2022-11-05T20:41:10.667Z,39.28
2022-11-05T20:43:38.627Z,36.83
2022-11-05T20:46:05.721Z,41.72
2022-11-05T20:48:33.838Z,36.67
2022-11-05T20:51:05.817Z,37.08
2022-11-05T20:53:32.934Z,40.88
2022-11-05T20:56:03.762Z,37.90
2022-11-05T20:58:35.240Z,34.78
2022-11-05T21:01:02.376Z,42.83
2022-11-05T21:03:29.501Z,38.47
2022-11-05T21:06:00.200Z,40.63
2022-11-05T21:08:28.033Z,39.78
2022-11-05T21:10:56.167Z,37.30
2022-11-05T21:13:23.896Z,43.90
2022-11-05T21:15:53.224Z,38.00
2022-11-05T21:18:22.558Z,39.03
2022-11-05T21:20:50.203Z,39.03
2022-11-05T21:23:17.588Z,41.78
2022-11-05T21:25:44.975Z,40.33
2022-11-05T21:28:14.232Z,36.00
2022-11-05T21:30:45.007Z,37.28
2022-11-05T21:33:14.585Z,44.13
2022-11-05T21:35:46.562Z,36.10
2022-11-05T21:38:16.395Z,40.30
2022-11-05T21:40:44.736Z,43.17
2022-11-05T21:43:12.219Z,39.58
2022-11-05T21:45:41.135Z,39.90
2022-11-05T21:48:09.082Z,37.78
2022-11-05T21:50:57.227Z,42.17
2022-11-05T21:53:42.689Z,39.72
2022-11-05T21:56:41.773Z,40.58
2022-11-05T21:59:30.359Z,41.10
2022-11-05T22:02:01.691Z,45.25
2022-11-05T22:04:34.095Z,43.60
2022-11-05T22:07:01.543Z,40.63
2022-11-05T22:09:28.893Z,48.90
2022-11-05T22:11:55.974Z,42.38
2022-11-05T22:14:23.825Z,41.30
2022-11-05T22:16:50.903Z,37.95
2022-11-05T22:19:18.033Z,39.47
2022-11-05T22:21:45.221Z,39.30
2022-11-05T22:24:12.040Z,37.85
2022-11-05T22:26:39.543Z,40.17
2022-11-05T22:29:07.388Z,41.05
2022-11-05T22:31:36.568Z,41.00
2022-11-05T22:34:05.060Z,46.55
2022-11-05T22:36:33.510Z,36.22
2022-11-05T22:39:01.098Z,39.90
2022-11-05T22:41:28.295Z,41.45
2022-11-05T22:43:56.031Z,38.95
2022-11-05T22:46:25.470Z,38.10
2022-11-05T22:48:53.426Z,38.20
2022-11-05T22:51:23.225Z,99.18
2022-11-05T22:53:50.922Z,43.92
2022-11-05T22:56:22.395Z,39.85
2022-11-05T22:58:51.323Z,39.40
2022-11-05T23:01:19.491Z,42.27
2022-11-05T23:03:48.259Z,35.67
2022-11-05T23:06:39.693Z,40.60
2022-11-05T23:09:41.298Z,39.83
2022-11-05T23:12:31.930Z,40.83
2022-11-05T23:15:00.905Z,45.25
2022-11-05T23:17:47.165Z,41.15
2022-11-05T23:20:35.743Z,39.50
2022-11-05T23:23:21.826Z,40.60
2022-11-05T23:25:49.016Z,32.55
2022-11-05T23:28:21.211Z,41.67
2022-11-05T23:31:06.625Z,42.72
2022-11-05T23:33:34.835Z,40.95
2022-11-05T23:36:25.501Z,44.50
2022-11-05T23:38:52.478Z,40.92
2022-11-05T23:41:42.417Z,41.50
2022-11-05T23:44:27.646Z,40.72
2022-11-05T23:47:20.749Z,38.75
2022-11-05T23:49:47.546Z,39.10
2022-11-05T23:52:14.528Z,39.67
2022-11-05T23:54:41.443Z,38.83
2022-11-05T23:57:09.515Z,41.10
2022-11-05T23:59:36.348Z,37.80
